createdAt,value
2022-08-20T00:02:09.520Z,18.67
2022-08-20T00:04:36.748Z,18.65
2022-08-20T00:07:07.622Z,18.59
2022-08-20T00:09:36.463Z,18.71
2022-08-20T00:12:05.443Z,18.69
2022-08-20T00:14:33.914Z,18.67
2022-08-20T00:17:01.772Z,18.66
2022-08-20T00:19:29.577Z,18.68
2022-08-20T00:21:57.562Z,18.52
2022-08-20T00:24:25.652Z,18.39
2022-08-20T00:26:52.738Z,18.48
2022-08-20T00:29:20.500Z,18.45
2022-08-20T00:31:49.352Z,18.38
2022-08-20T00:34:16.098Z,18.36
2022-08-20T00:36:42.721Z,18.40
2022-08-20T00:39:09.339Z,18.37
2022-08-20T00:41:35.924Z,18.31
2022-08-20T00:44:15.670Z,18.39
2022-08-20T00:46:43.910Z,18.41
2022-08-20T00:49:17.436Z,18.37
2022-08-20T00:51:55.505Z,18.36
2022-08-20T00:54:57.960Z,18.23
2022-08-20T00:57:54.809Z,18.24
2022-08-20T01:00:37.749Z,18.21
2022-08-20T01:03:09.776Z,18.25
2022-08-20T01:05:38.403Z,18.27
2022-08-20T01:08:05.864Z,18.35
2022-08-20T01:10:37.198Z,18.20
2022-08-20T01:13:10.915Z,18.20
2022-08-20T01:15:43.607Z,18.26
2022-08-20T01:18:18.273Z,18.17
2022-08-20T01:21:00.737Z,18.15
2022-08-20T01:23:54.356Z,18.13
2022-08-20T01:26:39.954Z,17.94
2022-08-20T01:29:29.418Z,17.95
2022-08-20T01:32:01.446Z,18.00
2022-08-20T01:34:31.826Z,18.03
2022-08-20T01:36:58.880Z,17.97
2022-08-20T01:39:32.467Z,18.01
2022-08-20T01:42:02.022Z,17.95
2022-08-20T01:44:29.796Z,17.95
2022-08-20T01:46:59.602Z,17.86
2022-08-20T01:49:29.843Z,17.91
2022-08-20T01:52:00.877Z,17.90
2022-08-20T01:54:28.440Z,17.95
2022-08-20T01:57:10.516Z,17.90
2022-08-20T01:59:37.366Z,17.97
2022-08-20T02:02:04.540Z,17.91
2022-08-20T02:04:31.314Z,17.85
2022-08-20T02:07:01.642Z,17.85
2022-08-20T02:09:30.864Z,17.81
2022-08-20T02:11:58.017Z,17.73
2022-08-20T02:14:26.478Z,17.70
2022-08-20T02:16:54.909Z,17.74
2022-08-20T02:19:41.275Z,17.78
2022-08-20T02:22:20.286Z,17.79
2022-08-20T02:24:48.723Z,17.61
2022-08-20T02:27:15.860Z,17.66
2022-08-20T02:29:42.546Z,17.65
2022-08-20T02:32:24.227Z,17.70
2022-08-20T02:34:56.094Z,17.76
2022-08-20T02:37:22.704Z,17.71
2022-08-20T02:39:49.457Z,17.80
2022-08-20T02:42:16.888Z,17.66
2022-08-20T02:44:43.586Z,17.60
2022-08-20T02:47:10.140Z,17.67
2022-08-20T02:49:36.895Z,17.59
2022-08-20T02:52:03.725Z,17.54
2022-08-20T02:54:30.646Z,17.63
2022-08-20T02:56:57.298Z,17.61
2022-08-20T02:59:24.084Z,17.64
2022-08-20T03:01:59.495Z,17.64
2022-08-20T03:04:28.476Z,17.56
2022-08-20T03:06:55.091Z,17.49
2022-08-20T03:09:21.857Z,17.45
2022-08-20T03:11:48.835Z,17.45
2022-08-20T03:14:15.448Z,17.43
2022-08-20T03:16:43.058Z,17.37
2022-08-20T03:19:09.694Z,17.41
2022-08-20T03:21:36.759Z,17.40
2022-08-20T03:24:03.613Z,17.28
2022-08-20T03:26:30.231Z,17.32
2022-08-20T03:28:57.221Z,17.30
2022-08-20T03:31:23.934Z,17.34
2022-08-20T03:33:53.568Z,17.31
2022-08-20T03:36:24.202Z,17.42
2022-08-20T03:38:59.232Z,17.36
2022-08-20T03:41:26.490Z,17.38
2022-08-20T03:43:53.349Z,17.32
2022-08-20T03:46:23.185Z,17.27
2022-08-20T03:49:00.264Z,17.28
2022-08-20T03:51:31.826Z,17.19
2022-08-20T03:54:18.308Z,17.19
2022-08-20T03:56:45.028Z,16.96
2022-08-20T03:59:11.633Z,16.98
2022-08-20T04:01:46.071Z,17.02
2022-08-20T04:04:14.839Z,17.06
2022-08-20T04:06:42.778Z,17.06
2022-08-20T04:09:11.954Z,17.11
2022-08-20T04:11:39.328Z,17.20
2022-08-20T04:14:05.946Z,17.16
2022-08-20T04:16:33.519Z,17.06
2022-08-20T04:19:02.352Z,16.93
2022-08-20T04:21:33.818Z,16.91
2022-08-20T04:24:03.040Z,16.86
2022-08-20T04:26:30.387Z,16.85
2022-08-20T04:28:57.181Z,16.89
2022-08-20T04:31:33.308Z,16.83
2022-08-20T04:34:04.940Z,16.68
2022-08-20T04:36:31.624Z,16.62
2022-08-20T04:38:58.259Z,16.73
2022-08-20T04:41:24.934Z,16.86
2022-08-20T04:43:54.057Z,16.82
2022-08-20T04:46:23.628Z,16.88
2022-08-20T04:48:50.806Z,16.89
2022-08-20T04:51:18.681Z,17.00
2022-08-20T04:53:51.994Z,16.90
2022-08-20T04:56:23.247Z,16.97
2022-08-20T04:58:51.174Z,16.92
2022-08-20T05:01:18.309Z,16.94
2022-08-20T05:03:47.622Z,16.96
2022-08-20T05:06:16.070Z,17.06
2022-08-20T05:08:42.740Z,17.06
2022-08-20T05:11:34.389Z,17.20
2022-08-20T05:13:57.395Z,17.21
2022-08-20T05:16:24.511Z,17.20
2022-08-20T05:18:52.762Z,17.19
2022-08-20T05:21:20.589Z,17.29
2022-08-20T05:23:47.353Z,17.31
2022-08-20T05:26:16.017Z,17.34
2022-08-20T05:28:54.031Z,17.38
2022-08-20T05:31:31.734Z,17.32
2022-08-20T05:34:09.580Z,17.42
2022-08-20T05:36:42.493Z,17.52
2022-08-20T05:39:10.371Z,17.58
2022-08-20T05:41:38.650Z,17.58
2022-08-20T05:44:09.784Z,17.64
2022-08-20T05:46:40.454Z,17.68
2022-08-20T05:49:09.122Z,17.71
2022-08-20T05:51:36.932Z,17.70
2022-08-20T05:54:05.896Z,17.64
2022-08-20T05:56:33.912Z,17.71
2022-08-20T05:59:04.731Z,17.73
2022-08-20T06:01:33.567Z,17.77
2022-08-20T06:04:19.228Z,17.78
2022-08-20T06:06:47.403Z,17.87
2022-08-20T06:09:30.678Z,17.94
2022-08-20T06:12:06.207Z,18.00
2022-08-20T06:14:33.818Z,18.06
2022-08-20T06:17:06.485Z,18.14
2022-08-20T06:19:35.106Z,18.16
2022-08-20T06:22:08.683Z,18.23
2022-08-20T06:24:44.853Z,18.28
2022-08-20T06:27:15.546Z,18.37
2022-08-20T06:29:42.290Z,18.44
2022-08-20T06:32:08.883Z,18.48
2022-08-20T06:34:35.636Z,18.61
2022-08-20T06:37:02.260Z,18.65
2022-08-20T06:39:31.114Z,18.72
2022-08-20T06:41:58.636Z,18.80
2022-08-20T06:44:25.939Z,18.85
2022-08-20T06:46:52.619Z,18.96
2022-08-20T06:49:19.184Z,19.01
2022-08-20T06:51:45.694Z,19.08
2022-08-20T06:54:17.270Z,19.24
2022-08-20T06:56:44.132Z,19.39
2022-08-20T06:59:10.937Z,19.42
2022-08-20T07:01:37.545Z,19.50
2022-08-20T07:04:05.573Z,19.59
2022-08-20T07:06:32.182Z,19.65
2022-08-20T07:08:58.860Z,19.77
2022-08-20T07:11:28.511Z,19.90
2022-08-20T07:13:58.303Z,20.01
2022-08-20T07:16:25.606Z,20.13
2022-08-20T07:18:52.200Z,20.26
2022-08-20T07:21:18.832Z,20.39
2022-08-20T07:23:45.922Z,20.50
2022-08-20T07:26:13.253Z,20.60
2022-08-20T07:28:39.995Z,20.70
2022-08-20T07:31:25.800Z,20.76
2022-08-20T07:33:53.692Z,20.80
2022-08-20T07:36:20.363Z,20.86
2022-08-20T07:38:48.246Z,20.89
2022-08-20T07:41:15.244Z,20.94
2022-08-20T07:43:45.768Z,20.98
2022-08-20T07:46:15.731Z,21.11
2022-08-20T07:48:49.614Z,21.13
2022-08-20T07:51:19.129Z,21.32
2022-08-20T07:53:47.021Z,21.32
2022-08-20T07:56:16.145Z,21.34
2022-08-20T07:58:50.012Z,21.44
2022-08-20T08:01:22.804Z,21.48
2022-08-20T08:03:50.736Z,21.49
2022-08-20T08:06:29.082Z,21.57
2022-08-20T08:09:01.603Z,21.66
2022-08-20T08:11:28.323Z,21.87
2022-08-20T08:13:55.056Z,22.02
2022-08-20T08:16:21.908Z,22.08
2022-08-20T08:18:53.143Z,22.05
2022-08-20T08:21:20.981Z,22.02
2022-08-20T08:23:47.814Z,22.09
2022-08-20T08:26:19.009Z,22.15
2022-08-20T08:28:46.735Z,22.17
2022-08-20T08:31:14.729Z,22.37
2022-08-20T08:33:42.441Z,22.52
2022-08-20T08:36:15.055Z,22.53
2022-08-20T08:38:44.694Z,22.58
2022-08-20T08:41:29.320Z,22.71
2022-08-20T08:44:06.776Z,22.86
2022-08-20T08:46:40.300Z,22.91
2022-08-20T08:49:12.298Z,23.04
2022-08-20T08:51:48.764Z,23.08
2022-08-20T08:54:21.406Z,23.35
2022-08-20T08:56:50.043Z,23.37
2022-08-20T08:59:18.745Z,23.51
2022-08-20T09:01:53.707Z,23.69
2022-08-20T09:04:28.443Z,23.76
2022-08-20T09:06:55.092Z,24.00
2022-08-20T09:09:26.408Z,24.18
2022-08-20T09:11:56.201Z,24.24
2022-08-20T09:14:25.556Z,24.38
2022-08-20T09:16:53.604Z,24.51
2022-08-20T09:19:21.503Z,24.56
2022-08-20T09:21:48.436Z,24.64
2022-08-20T09:24:15.122Z,24.84
2022-08-20T09:26:41.843Z,24.82
2022-08-20T09:29:08.396Z,24.85
2022-08-20T09:31:37.767Z,24.86
2022-08-20T09:34:05.834Z,24.89
2022-08-20T09:36:33.121Z,24.94
2022-08-20T09:39:00.734Z,25.16
2022-08-20T09:41:29.845Z,25.23
2022-08-20T09:43:56.415Z,25.24
2022-08-20T09:46:27.214Z,25.19
2022-08-20T09:48:55.237Z,25.22
2022-08-20T09:51:22.575Z,25.29
2022-08-20T09:53:49.348Z,25.40
2022-08-20T09:56:17.032Z,25.49
2022-08-20T09:58:53.341Z,25.58
2022-08-20T10:01:21.904Z,25.50
2022-08-20T10:03:49.646Z,25.53
2022-08-20T10:06:19.757Z,25.49
2022-08-20T10:08:47.229Z,25.48
2022-08-20T10:11:15.099Z,25.78
2022-08-20T10:13:42.004Z,25.90
2022-08-20T10:16:08.751Z,26.13
2022-08-20T10:18:36.656Z,26.18
2022-08-20T10:21:08.599Z,26.36
2022-08-20T10:23:35.277Z,26.34
2022-08-20T10:26:01.896Z,26.33
2022-08-20T10:28:28.601Z,26.27
2022-08-20T10:30:55.161Z,26.17
2022-08-20T10:33:21.955Z,26.24
2022-08-20T10:35:48.581Z,26.25
2022-08-20T10:38:16.322Z,26.35
2022-08-20T10:40:43.081Z,26.44
2022-08-20T10:43:19.123Z,26.49
2022-08-20T10:45:45.863Z,26.53
2022-08-20T10:48:12.798Z,26.55
2022-08-20T10:50:39.697Z,26.58
2022-08-20T10:53:06.398Z,26.55
2022-08-20T10:55:33.035Z,26.58
2022-08-20T10:57:59.786Z,26.66
2022-08-20T11:00:26.605Z,26.61
2022-08-20T11:02:53.235Z,26.53
2022-08-20T11:05:19.943Z,26.57
2022-08-20T11:07:55.129Z,26.55
2022-08-20T11:10:29.203Z,26.61
2022-08-20T11:12:56.167Z,26.67
2022-08-20T11:15:22.978Z,26.62
2022-08-20T11:17:49.981Z,26.54
2022-08-20T11:20:19.618Z,26.64
2022-08-20T11:22:47.071Z,26.79
2022-08-20T11:25:13.788Z,26.87
2022-08-20T11:27:45.017Z,26.88
2022-08-20T11:30:15.376Z,26.90
2022-08-20T11:32:42.075Z,26.96
2022-08-20T11:35:38.550Z,26.92
2022-08-20T11:37:56.554Z,27.07
2022-08-20T11:40:24.758Z,26.95
2022-08-20T11:43:12.955Z,27.05
2022-08-20T11:45:38.123Z,27.14
2022-08-20T11:48:05.276Z,27.12
2022-08-20T11:50:32.436Z,27.20
2022-08-20T11:52:59.352Z,27.28
2022-08-20T11:55:30.605Z,27.27
2022-08-20T11:57:59.812Z,27.19
2022-08-20T12:00:31.917Z,27.17
2022-08-20T12:02:59.489Z,27.22
2022-08-20T12:05:27.448Z,27.07
2022-08-20T12:07:54.146Z,27.37
2022-08-20T12:10:22.982Z,27.43
2022-08-20T12:12:49.741Z,27.46
2022-08-20T12:15:16.582Z,27.46
2022-08-20T12:17:43.278Z,27.42
2022-08-20T12:20:13.410Z,27.40
2022-08-20T12:22:40.602Z,27.46
2022-08-20T12:25:08.584Z,27.44
2022-08-20T12:27:37.339Z,27.46
2022-08-20T12:30:08.856Z,27.45
2022-08-20T12:32:35.692Z,27.48
2022-08-20T12:35:02.840Z,27.53
2022-08-20T12:37:31.512Z,27.57
2022-08-20T12:40:00.235Z,27.64
2022-08-20T12:42:29.181Z,27.72
2022-08-20T12:44:56.406Z,27.71
2022-08-20T12:47:31.659Z,27.66
2022-08-20T12:50:06.702Z,27.79
2022-08-20T12:52:33.749Z,27.83
2022-08-20T12:55:01.104Z,27.89
2022-08-20T12:57:31.062Z,27.89
2022-08-20T13:00:04.838Z,27.92
2022-08-20T13:02:31.766Z,27.87
2022-08-20T13:05:04.305Z,27.98
2022-08-20T13:07:32.518Z,27.93
2022-08-20T13:10:00.306Z,27.93
2022-08-20T13:12:27.082Z,27.94
2022-08-20T13:14:53.945Z,27.99
2022-08-20T13:17:22.669Z,28.07
2022-08-20T13:20:09.506Z,28.11
2022-08-20T13:22:36.669Z,28.07
2022-08-20T13:25:05.067Z,28.16
2022-08-20T13:27:31.919Z,28.28
2022-08-20T13:29:59.152Z,28.24
2022-08-20T13:32:26.453Z,28.21
2022-08-20T13:34:53.213Z,28.23
2022-08-20T13:37:25.536Z,28.28
2022-08-20T13:39:54.411Z,28.31
2022-08-20T13:42:21.380Z,28.23
2022-08-20T13:44:49.447Z,28.21
2022-08-20T13:47:23.024Z,28.17
2022-08-20T13:49:56.096Z,28.10
2022-08-20T13:52:23.438Z,28.05
2022-08-20T13:54:50.609Z,28.05
2022-08-20T13:57:18.764Z,28.06
2022-08-20T13:59:48.192Z,28.02
2022-08-20T14:02:16.326Z,28.13
2022-08-20T14:04:42.893Z,28.21
2022-08-20T14:07:15.230Z,28.17
2022-08-20T14:09:43.976Z,28.18
2022-08-20T14:12:12.342Z,28.21
2022-08-20T14:14:40.502Z,28.28
2022-08-20T14:17:17.553Z,28.35
2022-08-20T14:19:45.830Z,28.43
2022-08-20T14:22:12.793Z,28.46
2022-08-20T14:24:39.474Z,28.45
2022-08-20T14:27:09.514Z,28.34
2022-08-20T14:29:38.735Z,28.30
2022-08-20T14:32:06.830Z,28.18
2022-08-20T14:34:34.320Z,28.09
2022-08-20T14:37:22.586Z,28.12
2022-08-20T14:39:52.592Z,28.38
2022-08-20T14:42:20.730Z,28.45
2022-08-20T14:44:47.303Z,28.70
2022-08-20T14:47:26.333Z,28.71
2022-08-20T14:49:54.986Z,28.73
2022-08-20T14:52:23.321Z,28.78
2022-08-20T14:54:54.956Z,28.83
2022-08-20T14:57:21.698Z,28.85
2022-08-20T14:59:49.052Z,28.88
2022-08-20T15:02:17.258Z,28.95
2022-08-20T15:04:45.545Z,28.89
2022-08-20T15:07:25.104Z,28.84
2022-08-20T15:09:53.145Z,28.65
2022-08-20T15:12:20.250Z,28.84
2022-08-20T15:14:48.126Z,28.84
2022-08-20T15:17:24.658Z,28.84
2022-08-20T15:19:52.222Z,28.68
2022-08-20T15:22:20.135Z,28.51
2022-08-20T15:24:47.470Z,28.45
2022-08-20T15:27:22.625Z,28.42
2022-08-20T15:29:50.987Z,28.39
2022-08-20T15:32:17.790Z,28.30
2022-08-20T15:34:44.703Z,28.22
2022-08-20T15:37:12.436Z,28.33
2022-08-20T15:39:40.175Z,28.37
2022-08-20T15:42:08.388Z,28.44
2022-08-20T15:44:36.087Z,28.56
2022-08-20T15:47:31.513Z,28.54
2022-08-20T15:50:13.849Z,28.56
2022-08-20T15:52:45.073Z,28.56
2022-08-20T15:55:15.583Z,28.51
2022-08-20T15:58:10.242Z,28.50
2022-08-20T16:01:28.461Z,28.48
2022-08-20T16:04:16.622Z,28.49
2022-08-20T16:06:46.634Z,28.50
2022-08-20T16:09:18.935Z,28.42
2022-08-20T16:12:04.816Z,28.31
2022-08-20T16:14:38.301Z,28.25
2022-08-20T16:17:13.593Z,28.26
2022-08-20T16:20:09.309Z,28.30
2022-08-20T16:22:39.002Z,28.30
2022-08-20T16:25:05.972Z,28.25
2022-08-20T16:27:54.471Z,28.26
2022-08-20T16:30:43.661Z,28.24
2022-08-20T16:33:13.412Z,28.21
2022-08-20T16:35:54.667Z,28.21
2022-08-20T16:38:45.934Z,28.16
2022-08-20T16:41:24.499Z,28.05
2022-08-20T16:43:54.727Z,27.96
2022-08-20T16:46:26.036Z,27.97
2022-08-20T16:48:58.413Z,27.78
2022-08-20T16:51:40.868Z,27.80
2022-08-20T16:54:09.244Z,27.63
2022-08-20T16:56:38.853Z,27.95
2022-08-20T16:59:11.594Z,27.94
2022-08-20T17:01:39.231Z,27.72
2022-08-20T17:04:07.978Z,27.76
2022-08-20T17:06:46.356Z,27.57
2022-08-20T17:09:21.511Z,27.70
2022-08-20T17:11:48.399Z,27.59
2022-08-20T17:14:18.297Z,27.29
2022-08-20T17:16:50.657Z,27.62
2022-08-20T17:19:28.006Z,27.36
2022-08-20T17:21:56.208Z,27.18
2022-08-20T17:24:32.019Z,27.43
2022-08-20T17:27:10.580Z,27.41
2022-08-20T17:29:49.782Z,27.17
2022-08-20T17:32:24.428Z,27.12
2022-08-20T17:34:54.779Z,26.96
2022-08-20T17:37:28.358Z,26.80
2022-08-20T17:40:15.882Z,26.90
2022-08-20T17:42:58.574Z,26.77
2022-08-20T17:45:30.425Z,26.71
2022-08-20T17:48:00.056Z,26.56
2022-08-20T17:50:35.155Z,26.53
2022-08-20T17:53:09.226Z,26.72
2022-08-20T17:55:36.808Z,26.24
2022-08-20T17:58:06.761Z,26.41
2022-08-20T18:00:34.118Z,26.52
2022-08-20T18:03:15.068Z,26.48
2022-08-20T18:05:43.567Z,26.24
2022-08-20T18:08:41.633Z,26.39
2022-08-20T18:11:19.836Z,26.31
2022-08-20T18:13:59.352Z,26.07
2022-08-20T18:16:31.019Z,25.97
2022-08-20T18:19:20.783Z,26.10
2022-08-20T18:21:47.415Z,26.09
2022-08-20T18:24:38.516Z,26.04
2022-08-20T18:27:11.945Z,25.96
2022-08-20T18:29:42.883Z,25.90
2022-08-20T18:32:33.992Z,25.94
2022-08-20T18:35:31.163Z,25.88
2022-08-20T18:37:57.941Z,25.89
2022-08-20T18:40:33.259Z,25.81
2022-08-20T18:43:12.295Z,25.74
2022-08-20T18:45:38.911Z,25.75
2022-08-20T18:48:06.030Z,25.63
2022-08-20T18:50:46.245Z,25.67
2022-08-20T18:53:12.858Z,25.59
2022-08-20T18:55:45.481Z,25.58
2022-08-20T18:58:48.784Z,25.56
2022-08-20T19:01:15.640Z,25.51
2022-08-20T19:03:47.592Z,25.50
2022-08-20T19:06:41.527Z,25.44
2022-08-20T19:09:20.710Z,25.37
2022-08-20T19:12:08.973Z,25.36
2022-08-20T19:14:44.100Z,25.40
2022-08-20T19:17:14.861Z,25.33
2022-08-20T19:19:41.571Z,25.25
2022-08-20T19:22:12.686Z,25.31
2022-08-20T19:24:44.229Z,25.37
2022-08-20T19:27:12.623Z,25.34
2022-08-20T19:29:49.106Z,25.26
2022-08-20T19:32:44.476Z,25.24
2022-08-20T19:35:18.154Z,25.16
2022-08-20T19:37:50.525Z,25.12
2022-08-20T19:40:38.923Z,25.08
2022-08-20T19:43:14.384Z,25.05
2022-08-20T19:45:55.728Z,25.04
2022-08-20T19:48:41.624Z,25.04
2022-08-20T19:51:25.448Z,24.98
2022-08-20T19:53:52.905Z,24.86
2022-08-20T19:56:25.497Z,24.82
2022-08-20T19:59:05.185Z,24.90
2022-08-20T20:01:33.727Z,24.57
2022-08-20T20:04:03.474Z,24.98
2022-08-20T20:06:36.242Z,24.97
2022-08-20T20:09:28.038Z,25.03
2022-08-20T20:12:10.754Z,25.09
2022-08-20T20:14:52.514Z,25.04
2022-08-20T20:17:36.631Z,25.07
2022-08-20T20:20:34.990Z,25.10
2022-08-20T20:23:14.340Z,25.09
2022-08-20T20:25:45.076Z,25.07
2022-08-20T20:28:11.843Z,25.00
2022-08-20T20:30:40.277Z,24.94
2022-08-20T20:33:17.485Z,24.92
2022-08-20T20:35:46.008Z,24.99
2022-08-20T20:38:27.723Z,24.87
2022-08-20T20:41:01.953Z,24.91
2022-08-20T20:43:33.350Z,24.96
2022-08-20T20:46:21.530Z,24.95
2022-08-20T20:48:55.375Z,24.79
2022-08-20T20:51:26.367Z,24.89
2022-08-20T20:53:56.911Z,24.84
2022-08-20T20:56:26.541Z,24.84
2022-08-20T20:58:53.787Z,24.72
2022-08-20T21:01:27.292Z,24.70
2022-08-20T21:04:09.616Z,24.70
2022-08-20T21:06:36.553Z,24.67
2022-08-20T21:09:03.176Z,24.81
2022-08-20T21:11:29.750Z,24.87
2022-08-20T21:13:56.583Z,24.83
2022-08-20T21:16:23.206Z,24.86
2022-08-20T21:18:49.823Z,24.78
2022-08-20T21:21:16.441Z,24.68
2022-08-20T21:23:43.078Z,24.54
2022-08-20T21:26:09.895Z,24.42
2022-08-20T21:28:36.527Z,24.19
2022-08-20T21:31:03.220Z,23.96
2022-08-20T21:33:30.019Z,23.82
2022-08-20T21:35:56.885Z,23.95
2022-08-20T21:38:23.964Z,23.94
2022-08-20T21:40:50.899Z,23.88
2022-08-20T21:43:17.986Z,23.81
2022-08-20T21:45:45.668Z,23.70
2022-08-20T21:48:16.410Z,23.68
2022-08-20T21:50:43.632Z,23.70
2022-08-20T21:53:12.897Z,23.70
2022-08-20T21:55:40.924Z,23.73
2022-08-20T21:58:08.379Z,23.41
2022-08-20T22:00:47.157Z,23.21
2022-08-20T22:03:15.190Z,22.91
2022-08-20T22:05:42.314Z,23.01
2022-08-20T22:08:10.253Z,23.03
2022-08-20T22:10:37.567Z,23.01
2022-08-20T22:13:04.284Z,23.02
2022-08-20T22:15:30.894Z,23.05
2022-08-20T22:17:57.642Z,22.94
2022-08-20T22:20:25.103Z,22.88
2022-08-20T22:22:51.896Z,22.77
2022-08-20T22:25:18.553Z,22.68
2022-08-20T22:27:45.815Z,22.66
2022-08-20T22:30:12.548Z,22.63
2022-08-20T22:32:52.097Z,22.39
2022-08-20T22:35:25.873Z,22.69
2022-08-20T22:37:52.445Z,22.66
2022-08-20T22:40:19.107Z,22.59
2022-08-20T22:42:45.685Z,22.44
2022-08-20T22:45:14.765Z,22.30
2022-08-20T22:47:43.046Z,22.35
2022-08-20T22:50:12.048Z,22.42
2022-08-20T22:52:42.043Z,22.47
2022-08-20T22:55:09.516Z,22.51
2022-08-20T22:57:36.575Z,22.42
2022-08-20T23:00:08.743Z,22.25
2022-08-20T23:02:35.357Z,22.25
2022-08-20T23:05:02.220Z,22.29
2022-08-20T23:07:28.899Z,22.32
2022-08-20T23:09:55.493Z,22.25
2022-08-20T23:12:22.496Z,22.17
2022-08-20T23:14:49.062Z,21.97
2022-08-20T23:17:19.998Z,21.72
2022-08-20T23:19:48.808Z,21.61
2022-08-20T23:22:16.008Z,21.64
2022-08-20T23:24:43.001Z,21.44
2022-08-20T23:27:14.439Z,21.50
2022-08-20T23:29:41.353Z,21.50
2022-08-20T23:32:08.334Z,21.52
2022-08-20T23:34:35.079Z,21.50
2022-08-20T23:37:02.480Z,21.54
2022-08-20T23:39:29.467Z,21.56
2022-08-20T23:41:57.437Z,21.62
2022-08-20T23:44:26.359Z,21.58
2022-08-20T23:47:01.159Z,21.60
2022-08-20T23:49:29.978Z,21.35
2022-08-20T23:51:57.803Z,21.23
2022-08-20T23:54:24.595Z,21.21
2022-08-20T23:56:51.454Z,21.20
2022-08-20T23:59:24.185Z,21.14
